TRPG METAR and TAF | Updated Today

TRPG METAR

John A. Osborne Airport

Observation time: 3 min. ago

TRPG 062000Z 08012KT 9999 FEW018 28/25 Q1013

Need help? Read our tutorial on how to read METARs or read the parsed version below.

John A. Osborne Airport (TRPG) METAR

  • Weather conditions on Thu, 06 Oct 2022 20:00:00 +0000 (3 min. ago):
  • Present conditions: Dry
  • Clouds: A few at 549 meters
  • Visibility: Greater than 10 km
  • Wind: 80 degrees at 12 knots
  • Temperature: 28 celsius
  • Dew point: 25 celsius
  • Pressure: 1013 millibars
  • Remarks: None


Useful to know...

TRPG TAF

John A. Osborne Airport

TAF TRPG 061700Z 0618/0718 09015KT 9999 SCT020 PROB30 TEMPO 0618/0702 SHRA PROB40 TEMPO 0702/0712 SHRA
Observation time: 3:03 hr. ago
Need help? Read our tutorial on how to read TAFs or read the parsed version below.

Parsed version of TAF for John A. Osborne Airport (TRPG)

  • From 06 October at 18:00 UTC, to day 07 of the month at 18:00 UTC
  • Clouds: Scattered at 610 meters
  • Visibility: Greater than 10 km
  • Wind: 90 degrees at 15
  • Expected to arise temporarily, from 06 October at 18:00 UTC, to day 07 of the month at 02:00 UTC
    Probability of 30%
  • Expected to arise temporarily, from 07 October at 02:00 UTC, to day 07 of the month at 12:00 UTC
    Probability of 40%